Time;durP1;ratioP1;P1;durP2;ratioP2;P2;SDS_P1;SDS_P2;PMS_P1;PMS_P2;Temp;Humidity;BMP_temperature;BMP_pressure;BME280_temperature;BME280_humidity;BME280_pressure;Samples;Min_cycle;Max_cycle;Signal;HPM_P1;HPM_P2
2022/07/24 00:00:58;;;;;;;13.60;12.30;;;16.50;99.90;;;;;;5046401;28;20488;-65
2022/07/24 00:03:26;;;;;;;13.50;12.27;;;16.40;99.90;;;;;;5041516;28;20697;-65
2022/07/24 00:05:53;;;;;;;14.10;13.20;;;16.40;99.90;;;;;;5037502;28;20463;-65
2022/07/24 00:08:22;;;;;;;14.03;12.93;;;16.40;99.90;;;;;;5039230;28;20921;-65
2022/07/24 00:10:52;;;;;;;13.60;12.23;;;16.30;99.90;;;;;;5039332;28;20466;-65
2022/07/24 00:13:19;;;;;;;13.97;12.73;;;16.30;99.90;;;;;;5042060;28;20466;-65
2022/07/24 00:15:46;;;;;;;12.93;12.00;;;16.30;99.90;;;;;;5038254;28;20496;-66
2022/07/24 00:18:13;;;;;;;13.30;12.30;;;16.30;99.90;;;;;;5037541;28;20469;-66
2022/07/24 00:20:41;;;;;;;14.00;12.60;;;16.20;99.90;;;;;;5040511;28;20511;-65
2022/07/24 00:23:08;;;;;;;13.50;12.40;;;16.20;99.90;;;;;;5043119;28;20518;-65
2022/07/24 00:25:35;;;;;;;13.50;12.27;;;16.20;99.90;;;;;;5041338;28;20469;-67
2022/07/24 00:28:04;;;;;;;14.20;13.00;;;16.20;99.90;;;;;;5038155;28;20456;-65
2022/07/24 00:30:32;;;;;;;14.17;12.87;;;16.20;99.90;;;;;;5042731;28;20471;-66
2022/07/24 00:32:58;;;;;;;13.63;12.43;;;16.20;99.90;;;;;;5038457;28;20460;-66
2022/07/24 00:35:25;;;;;;;14.83;13.23;;;16.20;99.90;;;;;;5040403;28;20606;-66
2022/07/24 00:37:53;;;;;;;14.20;12.80;;;16.10;99.90;;;;;;5040229;28;21009;-64
2022/07/24 00:40:20;;;;;;;14.90;13.37;;;16.10;99.90;;;;;;5034551;28;20448;-66
2022/07/24 00:42:47;;;;;;;13.30;11.30;;;16.10;99.90;;;;;;5040223;28;20511;-66
2022/07/24 00:45:16;;;;;;;14.23;12.97;;;16.00;99.90;;;;;;5043382;28;20455;-68
2022/07/24 00:47:44;;;;;;;13.93;12.80;;;15.90;99.90;;;;;;5034569;28;20471;-67
2022/07/24 00:50:11;;;;;;;13.50;12.40;;;15.80;99.90;;;;;;5038719;28;20800;-68
2022/07/24 00:52:40;;;;;;;16.07;12.73;;;15.80;99.90;;;;;;5034765;28;20543;-67
2022/07/24 00:55:09;;;;;;;13.90;13.00;;;15.80;99.90;;;;;;5041202;28;20587;-67
2022/07/24 00:57:38;;;;;;;14.13;12.80;;;15.80;99.90;;;;;;5042746;28;20463;-68
2022/07/24 01:00:06;;;;;;;15.20;12.53;;;15.70;99.90;;;;;;5039477;28;20460;-67
2022/07/24 01:02:34;;;;;;;13.20;11.90;;;15.60;99.90;;;;;;5041519;28;20483;-67
2022/07/24 01:05:02;;;;;;;13.13;12.03;;;15.60;99.90;;;;;;5039012;28;20869;-66
2022/07/24 01:07:28;;;;;;;14.47;12.47;;;15.60;99.90;;;;;;5035773;28;20453;-68
2022/07/24 01:09:57;;;;;;;13.80;12.63;;;15.60;99.90;;;;;;5039993;28;20464;-68
2022/07/24 01:12:25;;;;;;;15.80;13.03;;;15.60;99.90;;;;;;5040397;28;20464;-67
2022/07/24 01:14:52;;;;;;;13.23;12.23;;;15.60;99.90;;;;;;5040863;28;20498;-66
2022/07/24 01:17:21;;;;;;;14.13;12.80;;;15.50;99.90;;;;;;5035222;28;20460;-68
2022/07/24 01:19:50;;;;;;;17.53;12.17;;;15.60;99.90;;;;;;5037810;28;20471;-67
2022/07/24 01:22:18;;;;;;;16.20;12.67;;;15.60;99.90;;;;;;5038400;28;20622;-67
2022/07/24 01:24:45;;;;;;;13.03;12.00;;;15.60;99.90;;;;;;5042352;28;20463;-67
2022/07/24 01:27:13;;;;;;;14.67;13.00;;;15.60;99.90;;;;;;5035289;28;20461;-67
2022/07/24 01:29:40;;;;;;;13.77;12.57;;;15.60;99.90;;;;;;5045537;28;20464;-68
2022/07/24 01:32:08;;;;;;;13.50;12.40;;;15.60;99.90;;;;;;5034294;28;20468;-66
2022/07/24 01:34:35;;;;;;;13.07;12.03;;;15.60;99.90;;;;;;5038151;28;21120;-68
2022/07/24 01:37:03;;;;;;;15.97;12.87;;;15.60;99.90;;;;;;5038766;28;20460;-67
2022/07/24 01:39:31;;;;;;;14.50;13.00;;;15.70;99.90;;;;;;5035092;28;20488;-65
2022/07/24 01:41:58;;;;;;;14.07;12.67;;;15.70;99.90;;;;;;5041047;28;20490;-65
2022/07/24 01:44:26;;;;;;;21.07;14.70;;;15.80;99.90;;;;;;5044704;28;20470;-66
2022/07/24 01:46:53;;;;;;;17.97;14.27;;;15.80;99.90;;;;;;5041572;28;20460;-64
2022/07/24 01:49:20;;;;;;;18.10;15.87;;;15.90;99.90;;;;;;5040134;28;20469;-65
2022/07/24 01:51:46;;;;;;;19.73;15.60;;;15.90;99.90;;;;;;5042326;28;20487;-66
2022/07/24 01:54:14;;;;;;;18.40;14.90;;;16.10;99.90;;;;;;5042834;28;20816;-65
2022/07/24 01:56:42;;;;;;;15.93;14.30;;;16.20;99.90;;;;;;5042099;28;20471;-66
2022/07/24 01:59:09;;;;;;;15.83;14.47;;;16.20;99.90;;;;;;5043917;28;20456;-65
2022/07/24 02:01:36;;;;;;;18.40;13.57;;;16.20;99.90;;;;;;5038326;28;20503;-65
2022/07/24 02:04:04;;;;;;;15.67;13.90;;;16.20;99.90;;;;;;5042110;28;20471;-66
2022/07/24 02:06:32;;;;;;;16.93;14.97;;;16.30;99.90;;;;;;5044864;28;20471;-66
2022/07/24 02:08:59;;;;;;;16.40;14.73;;;16.30;99.90;;;;;;5045160;28;20496;-66
2022/07/24 02:11:25;;;;;;;20.37;14.27;;;16.30;99.90;;;;;;5039371;28;20471;-65
2022/07/24 02:13:55;;;;;;;15.87;14.17;;;16.40;99.90;;;;;;5041903;28;20462;-65
2022/07/24 02:16:22;;;;;;;15.80;14.50;;;16.40;99.90;;;;;;5042103;28;20491;-66
2022/07/24 02:18:49;;;;;;;16.10;14.07;;;16.40;99.90;;;;;;5037802;28;20468;-65
2022/07/24 02:21:16;;;;;;;16.70;15.20;;;16.40;99.90;;;;;;5041165;28;20496;-64
2022/07/24 02:23:43;;;;;;;24.10;16.60;;;16.40;99.90;;;;;;5040018;28;20473;-66
2022/07/24 02:26:10;;;;;;;16.33;14.73;;;16.40;99.90;;;;;;5044121;28;20467;-65
2022/07/24 02:28:38;;;;;;;17.47;15.33;;;16.50;99.90;;;;;;5041823;28;20499;-65
2022/07/24 02:31:07;;;;;;;22.10;15.47;;;16.50;99.90;;;;;;5042816;28;20543;-66
2022/07/24 02:33:35;;;;;;;24.13;16.50;;;16.60;99.90;;;;;;5042500;28;20476;-66
2022/07/24 02:36:02;;;;;;;17.90;15.97;;;16.60;99.90;;;;;;5048675;28;20510;-65
2022/07/24 02:38:30;;;;;;;21.83;15.73;;;16.70;99.90;;;;;;5040727;28;20551;-66
2022/07/24 02:40:57;;;;;;;16.70;14.97;;;16.70;99.90;;;;;;5040395;28;20572;-66
2022/07/24 02:43:25;;;;;;;17.93;15.23;;;16.70;99.90;;;;;;5044941;28;20470;-65
2022/07/24 02:45:52;;;;;;;17.57;15.87;;;16.60;99.90;;;;;;5037602;28;20470;-65
2022/07/24 02:48:20;;;;;;;17.33;15.83;;;16.70;99.90;;;;;;5039396;28;20488;-66
2022/07/24 02:50:48;;;;;;;22.13;15.33;;;16.70;99.90;;;;;;5036854;28;20943;-66
2022/07/24 02:53:15;;;;;;;22.43;16.03;;;16.80;99.90;;;;;;5038622;28;20456;-65
2022/07/24 02:55:42;;;;;;;18.50;16.00;;;16.80;99.90;;;;;;5037605;28;20467;-65
2022/07/24 02:58:10;;;;;;;16.67;15.47;;;16.90;99.90;;;;;;5043994;28;20469;-65
2022/07/24 03:00:37;;;;;;;17.90;16.13;;;16.90;99.90;;;;;;5042328;28;20468;-66
2022/07/24 03:03:04;;;;;;;16.90;15.20;;;16.90;99.90;;;;;;5041492;28;20487;-65
2022/07/24 03:05:32;;;;;;;17.80;15.90;;;17.00;99.90;;;;;;5040919;28;20467;-65
2022/07/24 03:07:59;;;;;;;17.37;15.63;;;17.00;99.90;;;;;;5040024;28;20472;-67
2022/07/24 03:10:27;;;;;;;16.40;14.93;;;17.00;99.90;;;;;;5039877;28;20464;-66
2022/07/24 03:12:55;;;;;;;16.60;15.17;;;17.00;99.90;;;;;;5044887;28;20472;-66
2022/07/24 03:15:21;;;;;;;17.03;14.63;;;17.00;99.90;;;;;;5037407;28;20528;-66
2022/07/24 03:17:53;;;;;;;19.43;16.07;;;16.90;99.90;;;;;;5041562;28;20470;-66
2022/07/24 03:20:21;;;;;;;16.63;15.10;;;16.90;99.90;;;;;;5035750;28;20464;-66
2022/07/24 03:22:49;;;;;;;16.83;15.53;;;16.90;99.90;;;;;;5038943;28;20991;-66
2022/07/24 03:25:16;;;;;;;20.13;15.43;;;16.90;99.90;;;;;;5043250;28;20460;-66
2022/07/24 03:27:43;;;;;;;29.73;16.80;;;16.80;99.90;;;;;;5041299;28;20465;-66
2022/07/24 03:30:11;;;;;;;26.27;16.47;;;16.70;99.90;;;;;;5038700;28;20462;-66
2022/07/24 03:32:38;;;;;;;24.13;16.70;;;16.50;99.90;;;;;;5038922;28;20461;-66
2022/07/24 03:35:06;;;;;;;17.53;15.77;;;16.40;99.90;;;;;;5039590;28;20589;-66
2022/07/24 03:37:33;;;;;;;19.30;17.40;;;16.30;99.90;;;;;;5035871;28;20465;-66
2022/07/24 03:40:01;;;;;;;17.30;15.77;;;16.10;99.90;;;;;;5038524;28;20466;-66
2022/07/24 03:42:29;;;;;;;17.93;16.23;;;16.00;99.90;;;;;;5041336;28;20464;-65
2022/07/24 03:44:56;;;;;;;18.53;16.60;;;16.00;99.90;;;;;;5040082;28;20989;-65
2022/07/24 03:47:24;;;;;;;18.07;16.13;;;15.90;99.90;;;;;;5043450;28;21310;-66
2022/07/24 03:49:51;;;;;;;17.43;15.70;;;15.90;99.90;;;;;;5043468;28;20546;-66
2022/07/24 03:52:19;;;;;;;19.37;17.00;;;15.90;99.90;;;;;;5038690;28;20468;-65
2022/07/24 03:54:46;;;;;;;17.33;15.57;;;15.90;99.90;;;;;;5043199;28;20557;-66
2022/07/24 03:57:14;;;;;;;17.03;15.27;;;15.90;99.90;;;;;;5039064;28;21142;-66
2022/07/24 03:59:41;;;;;;;18.30;16.53;;;15.80;99.90;;;;;;5035550;28;20970;-65
2022/07/24 04:02:08;;;;;;;25.40;15.73;;;15.80;99.90;;;;;;5031406;28;20599;-65
2022/07/24 04:04:34;;;;;;;17.40;15.80;;;15.80;99.90;;;;;;5015939;28;21178;-65
2022/07/24 04:07:01;;;;;;;17.27;14.77;;;15.80;99.90;;;;;;5012930;28;20455;-66
2022/07/24 04:09:28;;;;;;;17.13;15.53;;;15.80;99.90;;;;;;5014569;28;20475;-65
2022/07/24 04:11:55;;;;;;;19.77;15.97;;;15.80;99.90;;;;;;5014943;28;20502;-66
2022/07/24 04:14:23;;;;;;;16.83;14.53;;;15.70;99.90;;;;;;5016502;28;20815;-66
2022/07/24 04:16:50;;;;;;;17.90;16.23;;;15.60;99.90;;;;;;5014460;28;21105;-66
2022/07/24 04:19:17;;;;;;;19.47;17.47;;;15.60;99.90;;;;;;5015328;28;20467;-66
2022/07/24 04:21:44;;;;;;;17.60;15.77;;;15.60;99.90;;;;;;5015049;28;20707;-66
2022/07/24 04:24:11;;;;;;;22.47;16.17;;;15.60;99.90;;;;;;5013771;28;20456;-66
2022/07/24 04:26:38;;;;;;;20.70;17.93;;;15.60;99.90;;;;;;5012716;28;20468;-65
2022/07/24 04:29:05;;;;;;;23.27;16.40;;;15.60;99.90;;;;;;5014304;28;22804;-66
2022/07/24 04:31:33;;;;;;;20.20;17.03;;;15.70;99.90;;;;;;5014559;28;20842;-67
2022/07/24 04:34:01;;;;;;;20.40;18.40;;;15.60;99.90;;;;;;5014564;28;20467;-66
2022/07/24 04:36:28;;;;;;;19.33;17.20;;;15.60;99.90;;;;;;5015814;28;20502;-66
2022/07/24 04:38:54;;;;;;;19.80;17.27;;;15.70;99.90;;;;;;5025128;28;20479;-66
2022/07/24 04:41:21;;;;;;;20.73;17.60;;;15.90;99.90;;;;;;5033147;28;20457;-66
2022/07/24 04:43:49;;;;;;;20.13;17.13;;;16.00;99.90;;;;;;5014486;28;20500;-66
2022/07/24 04:46:16;;;;;;;16.77;15.20;;;16.00;99.90;;;;;;5014480;28;20467;-66
2022/07/24 04:48:44;;;;;;;20.70;16.03;;;16.10;99.90;;;;;;5013949;28;20461;-65
2022/07/24 04:51:11;;;;;;;16.87;14.70;;;16.20;99.90;;;;;;5012447;28;21248;-66
2022/07/24 04:53:38;;;;;;;15.50;13.93;;;16.30;99.90;;;;;;5014530;28;20839;-67
2022/07/24 04:56:05;;;;;;;16.13;14.60;;;16.30;99.90;;;;;;5013837;28;20910;-66
2022/07/24 04:58:32;;;;;;;17.27;15.57;;;16.40;99.90;;;;;;5015115;28;20497;-65
2022/07/24 05:00:59;;;;;;;22.07;15.20;;;16.60;99.90;;;;;;5014935;28;20471;-66
2022/07/24 05:03:26;;;;;;;16.30;14.70;;;16.70;99.90;;;;;;5013630;28;20491;-66
2022/07/24 05:05:55;;;;;;;22.10;15.83;;;16.80;99.90;;;;;;5014505;28;20472;-66
2022/07/24 05:08:21;;;;;;;17.97;16.33;;;17.00;99.90;;;;;;5014103;28;20467;-67
2022/07/24 05:10:48;;;;;;;16.50;15.10;;;17.20;99.90;;;;;;5013917;28;20523;-65
2022/07/24 05:13:17;;;;;;;18.13;16.33;;;17.30;99.90;;;;;;5014365;28;20573;-65
2022/07/24 05:15:44;;;;;;;17.97;16.47;;;17.50;99.90;;;;;;5016829;28;20488;-65
2022/07/24 05:18:10;;;;;;;18.37;16.50;;;17.60;99.90;;;;;;5017306;28;20460;-66
2022/07/24 05:20:37;;;;;;;18.60;16.63;;;17.80;99.90;;;;;;5018469;28;20782;-66
2022/07/24 05:23:05;;;;;;;20.97;16.93;;;17.90;99.90;;;;;;5018366;28;20502;-66
2022/07/24 05:25:33;;;;;;;16.37;14.63;;;18.10;99.90;;;;;;5019186;28;20818;-65
2022/07/24 05:28:00;;;;;;;17.67;16.10;;;18.30;99.90;;;;;;5017410;28;20806;-69
2022/07/24 05:30:27;;;;;;;18.23;16.63;;;18.30;99.90;;;;;;5017471;28;20456;-68
2022/07/24 05:32:54;;;;;;;19.50;17.37;;;18.40;99.90;;;;;;5017270;28;20465;-68
2022/07/24 05:35:21;;;;;;;20.20;17.70;;;18.40;99.90;;;;;;5018195;28;20501;-68
2022/07/24 05:37:48;;;;;;;17.23;15.50;;;18.40;99.90;;;;;;5019313;28;20971;-68
2022/07/24 05:40:16;;;;;;;17.73;16.00;;;18.50;99.90;;;;;;5020810;28;20468;-67
2022/07/24 05:42:43;;;;;;;17.37;16.07;;;18.60;99.90;;;;;;5043860;28;20476;-68
2022/07/24 05:45:10;;;;;;;19.70;17.50;;;18.70;99.90;;;;;;5022525;28;20868;-68
2022/07/24 05:47:38;;;;;;;18.37;16.57;;;18.70;99.90;;;;;;5016956;28;20460;-68
2022/07/24 05:50:08;;;;;;;18.93;17.17;;;18.80;99.90;;;;;;5017253;28;20702;-68
2022/07/24 05:52:36;;;;;;;18.70;17.20;;;18.90;99.90;;;;;;5016956;28;20461;-69
2022/07/24 05:55:04;;;;;;;17.43;16.10;;;19.10;99.90;;;;;;5014285;28;20456;-69
2022/07/24 05:57:32;;;;;;;17.83;16.00;;;19.20;99.90;;;;;;5017627;28;20464;-68
2022/07/24 05:59:59;;;;;;;18.00;16.60;;;19.60;99.90;;;;;;5017032;28;21001;-69
2022/07/24 06:02:26;;;;;;;17.87;16.27;;;19.70;99.90;;;;;;5014586;28;20542;-68
2022/07/24 06:04:53;;;;;;;17.00;15.70;;;19.90;99.90;;;;;;5015450;28;20469;-68
2022/07/24 06:07:19;;;;;;;17.83;16.20;;;20.00;99.90;;;;;;5015689;28;21799;-66
2022/07/24 06:09:46;;;;;;;19.77;17.80;;;20.00;99.90;;;;;;5016804;28;21098;-66
2022/07/24 06:12:13;;;;;;;24.13;17.70;;;20.00;99.90;;;;;;5017107;28;20669;-65
2022/07/24 06:14:42;;;;;;;17.83;16.20;;;20.20;99.90;;;;;;5016025;28;20496;-66
2022/07/24 06:17:09;;;;;;;18.37;16.87;;;20.20;99.90;;;;;;5016139;28;20848;-67
2022/07/24 06:19:36;;;;;;;18.80;17.23;;;20.40;99.90;;;;;;5014951;28;20973;-66
2022/07/24 06:22:03;;;;;;;17.57;16.10;;;20.30;99.90;;;;;;5014731;28;20467;-66
2022/07/24 06:24:29;;;;;;;18.73;16.77;;;20.30;99.90;;;;;;5031554;28;22461;-67
2022/07/24 06:26:56;;;;;;;18.10;16.60;;;20.30;99.90;;;;;;5043677;28;20456;-66
2022/07/24 06:29:23;;;;;;;19.40;17.90;;;20.20;99.90;;;;;;5040699;28;20484;-66
2022/07/24 06:31:51;;;;;;;18.93;17.20;;;20.30;99.90;;;;;;5038578;28;20460;-66
2022/07/24 06:34:23;;;;;;;19.60;18.10;;;20.40;99.90;;;;;;5014854;28;20571;-66
2022/07/24 06:36:50;;;;;;;20.30;18.60;;;20.60;99.90;;;;;;5013720;28;22630;-66
2022/07/24 06:39:17;;;;;;;19.20;17.50;;;20.70;99.90;;;;;;5014228;28;20488;-67
2022/07/24 06:41:44;;;;;;;24.20;21.80;;;20.80;99.90;;;;;;5013987;28;20924;-67
2022/07/24 06:44:11;;;;;;;22.50;20.40;;;20.90;99.90;;;;;;5014151;28;20501;-66
2022/07/24 06:46:38;;;;;;;22.60;20.57;;;20.90;99.90;;;;;;5013797;28;20457;-66
2022/07/24 06:49:06;;;;;;;23.57;21.27;;;20.90;99.90;;;;;;5015129;28;20498;-67
2022/07/24 06:54:13;;;;;;;23.80;21.60;;;21.00;99.90;;;;;;5018599;28;21408;-66
2022/07/24 06:56:40;;;;;;;24.87;22.37;;;21.20;99.90;;;;;;5019031;28;20459;-66
2022/07/24 06:59:07;;;;;;;28.43;23.70;;;21.60;99.90;;;;;;5018834;28;20476;-65
2022/07/24 07:01:34;;;;;;;26.00;23.30;;;21.60;99.90;;;;;;5018792;28;20463;-67
2022/07/24 07:04:01;;;;;;;27.90;25.20;;;21.70;99.90;;;;;;5020993;28;20492;-67
2022/07/24 07:06:30;;;;;;;28.00;24.93;;;21.80;99.90;;;;;;5011795;28;20477;-66
2022/07/24 07:08:57;;;;;;;25.43;23.03;;;22.00;99.90;;;;;;5012991;28;20448;-66
2022/07/24 07:11:23;;;;;;;29.23;26.10;;;21.90;99.90;;;;;;5015655;28;20464;-66
2022/07/24 07:13:50;;;;;;;27.93;25.43;;;22.10;99.90;;;;;;5015711;28;20452;-66
2022/07/24 07:16:17;;;;;;;28.10;25.30;;;22.10;99.90;;;;;;5015725;28;20480;-67
2022/07/24 07:18:44;;;;;;;29.07;25.87;;;22.00;99.90;;;;;;5015503;28;20715;-66
2022/07/24 07:21:11;;;;;;;28.67;25.67;;;22.20;99.90;;;;;;5014725;28;21162;-66
2022/07/24 07:23:39;;;;;;;29.63;26.80;;;22.40;99.90;;;;;;5016003;28;20534;-67
2022/07/24 07:26:06;;;;;;;30.30;27.20;;;22.50;99.90;;;;;;5015419;28;20479;-67
2022/07/24 07:28:33;;;;;;;26.80;24.40;;;22.60;99.90;;;;;;5015067;28;20911;-66
2022/07/24 07:31:00;;;;;;;30.33;27.30;;;22.60;99.90;;;;;;5015569;28;21015;-66
2022/07/24 07:33:27;;;;;;;30.97;27.63;;;22.90;99.90;;;;;;5015956;28;20466;-66
2022/07/24 07:35:55;;;;;;;29.53;26.67;;;22.80;99.90;;;;;;5015210;28;20606;-67
2022/07/24 07:38:22;;;;;;;29.20;25.90;;;22.80;99.90;;;;;;5015218;28;20930;-67
2022/07/24 07:40:50;;;;;;;28.77;24.70;;;22.90;99.90;;;;;;5014702;28;20468;-67
2022/07/24 07:43:17;;;;;;;27.73;24.93;;;23.20;99.90;;;;;;5015579;28;20488;-67
2022/07/24 07:45:44;;;;;;;26.23;23.83;;;23.50;99.90;;;;;;5015598;28;20464;-66
2022/07/24 07:48:11;;;;;;;27.00;24.30;;;23.60;99.90;;;;;;5014731;28;20471;-66
2022/07/24 07:50:38;;;;;;;27.87;25.20;;;23.60;99.90;;;;;;5015223;28;20971;-66
2022/07/24 07:53:05;;;;;;;29.13;26.20;;;23.70;99.90;;;;;;5013898;28;20852;-66
2022/07/24 07:55:32;;;;;;;28.90;26.13;;;23.80;99.90;;;;;;5015436;28;20461;-67
2022/07/24 07:58:01;;;;;;;30.17;26.70;;;23.70;99.90;;;;;;5015900;28;20561;-67
2022/07/24 08:00:28;;;;;;;28.60;25.97;;;23.70;99.90;;;;;;5012383;28;20549;-66
2022/07/24 08:02:54;;;;;;;26.37;22.83;;;23.90;99.90;;;;;;5041907;28;20578;-66
2022/07/24 08:05:22;;;;;;;25.00;22.90;;;24.10;99.90;;;;;;5037505;28;20475;-66
2022/07/24 08:07:49;;;;;;;26.23;23.93;;;24.20;99.90;;;;;;5036179;28;20460;-68
2022/07/24 08:10:15;;;;;;;25.67;23.57;;;24.40;99.90;;;;;;5015559;28;20460;-66
2022/07/24 08:12:42;;;;;;;27.57;24.53;;;24.60;99.90;;;;;;5014421;28;20799;-67
2022/07/24 08:15:11;;;;;;;24.33;22.57;;;24.60;99.90;;;;;;5015241;28;20519;-67
2022/07/24 08:17:38;;;;;;;25.93;23.93;;;24.60;99.90;;;;;;5015405;28;20480;-67
2022/07/24 08:20:06;;;;;;;27.00;24.30;;;24.90;99.90;;;;;;5015164;28;20463;-67
2022/07/24 08:22:33;;;;;;;27.60;25.20;;;25.00;99.90;;;;;;5015747;28;20483;-66
2022/07/24 08:25:00;;;;;;;27.00;24.30;;;25.20;99.90;;;;;;5014414;28;20491;-67
2022/07/24 08:27:27;;;;;;;24.93;22.87;;;25.40;99.90;;;;;;5014986;28;20459;-67
2022/07/24 08:29:54;;;;;;;26.50;23.77;;;26.00;99.90;;;;;;5014717;28;20476;-67
2022/07/24 08:32:22;;;;;;;24.00;22.03;;;26.80;99.90;;;;;;5014401;28;20993;-67
2022/07/24 08:34:49;;;;;;;24.93;22.77;;;27.30;99.90;;;;;;5014014;28;20948;-67
2022/07/24 08:37:19;;;;;;;24.30;21.83;;;27.70;99.90;;;;;;5015931;28;20471;-67
2022/07/24 08:39:46;;;;;;;24.73;22.83;;;28.00;99.90;;;;;;5014256;28;20484;-68
2022/07/24 08:42:13;;;;;;;22.67;21.00;;;27.70;99.90;;;;;;5028387;28;20479;-67
2022/07/24 08:44:39;;;;;;;21.13;19.63;;;28.20;99.90;;;;;;5024618;28;20590;-67
2022/07/24 08:47:09;;;;;;;23.07;21.17;;;28.90;99.90;;;;;;5014784;28;20464;-67
2022/07/24 08:49:38;;;;;;;21.00;19.47;;;29.20;99.90;;;;;;5013863;28;20889;-67
2022/07/24 08:52:08;;;;;;;21.73;20.20;;;29.20;99.90;;;;;;5015108;28;22529;-67
2022/07/24 08:54:35;;;;;;;23.87;22.23;;;29.50;99.90;;;;;;5014908;28;20563;-68
2022/07/24 08:57:02;;;;;;;22.67;21.03;;;29.30;99.90;;;;;;5014334;28;20464;-68
2022/07/24 08:59:29;;;;;;;21.67;19.87;;;29.80;99.90;;;;;;5013892;28;20460;-68
2022/07/24 09:01:56;;;;;;;22.33;20.73;;;30.10;99.90;;;;;;5023964;28;20491;-68
2022/07/24 09:04:38;;;;;;;22.33;20.90;;;30.70;98.90;;;;;;5014974;28;20510;-68
2022/07/24 09:07:07;;;;;;;22.53;20.93;;;30.70;97.90;;;;;;5014387;28;20471;-67
2022/07/24 09:09:33;;;;;;;21.17;19.67;;;30.60;97.60;;;;;;5014100;28;20462;-67
2022/07/24 09:12:09;;;;;;;22.73;20.40;;;31.00;97.00;;;;;;5014156;28;20460;-67
2022/07/24 09:14:38;;;;;;;22.27;20.53;;;31.10;96.70;;;;;;5014375;28;20543;-68
2022/07/24 09:17:07;;;;;;;20.97;19.57;;;31.30;95.50;;;;;;5014945;28;20467;-67
2022/07/24 09:19:49;;;;;;;21.40;19.67;;;31.80;94.20;;;;;;5014432;28;21010;-68
2022/07/24 09:22:34;;;;;;;20.20;18.90;;;31.90;93.80;;;;;;5013782;28;20500;-67
2022/07/24 09:25:10;;;;;;;21.97;20.47;;;32.10;93.00;;;;;;5014778;28;20483;-68
2022/07/24 09:27:39;;;;;;;20.33;18.87;;;32.00;92.50;;;;;;5013604;28;20495;-68
2022/07/24 09:30:08;;;;;;;21.67;19.70;;;32.30;92.30;;;;;;5015432;28;21091;-68
2022/07/24 09:32:36;;;;;;;19.20;17.90;;;32.30;91.00;;;;;;5014583;28;20476;-68
2022/07/24 09:35:05;;;;;;;18.90;17.60;;;32.50;90.20;;;;;;5014636;28;20482;-68
2022/07/24 09:37:32;;;;;;;18.83;17.63;;;32.60;89.90;;;;;;5014407;28;20509;-67
2022/07/24 09:40:11;;;;;;;19.83;18.43;;;32.50;88.60;;;;;;5014572;28;20487;-68
2022/07/24 09:42:40;;;;;;;19.50;18.30;;;32.30;88.80;;;;;;5013951;28;20475;-67
2022/07/24 09:45:12;;;;;;;19.20;18.03;;;31.80;90.10;;;;;;5014639;28;20484;-68
2022/07/24 09:47:39;;;;;;;21.17;19.67;;;32.60;88.90;;;;;;5013619;28;20548;-68
2022/07/24 09:50:16;;;;;;;21.43;19.60;;;33.00;87.30;;;;;;5014088;28;20461;-68
2022/07/24 09:52:44;;;;;;;20.13;18.93;;;33.60;84.40;;;;;;5013606;28;20461;-67
2022/07/24 09:55:24;;;;;;;19.87;18.47;;;32.90;81.80;;;;;;5013746;28;20476;-68
2022/07/24 09:57:51;;;;;;;20.20;18.70;;;33.10;82.50;;;;;;5013732;28;20467;-68
2022/07/24 10:00:19;;;;;;;21.13;19.83;;;33.00;82.30;;;;;;5015509;28;20527;-68
2022/07/24 10:02:47;;;;;;;19.97;17.97;;;32.80;81.30;;;;;;5034818;28;21010;-67
2022/07/24 10:05:17;;;;;;;19.10;17.80;;;33.10;79.60;;;;;;5042060;28;20491;-68
2022/07/24 10:07:49;;;;;;;19.97;18.77;;;32.50;80.30;;;;;;5017296;28;20652;-69
2022/07/24 10:10:17;;;;;;;19.07;17.53;;;32.40;79.30;;;;;;5016941;28;20546;-69
2022/07/24 10:12:46;;;;;;;19.63;18.33;;;33.00;78.00;;;;;;5017105;28;20492;-68
2022/07/24 10:15:14;;;;;;;19.00;17.60;;;31.90;79.10;;;;;;5017640;28;20492;-68
2022/07/24 10:18:08;;;;;;;19.73;18.43;;;32.10;79.10;;;;;;5018593;28;20589;-69
2022/07/24 10:20:41;;;;;;;19.53;18.23;;;32.80;78.40;;;;;;5017571;28;20541;-68
2022/07/24 10:23:09;;;;;;;19.57;18.00;;;33.40;74.30;;;;;;5017064;28;20464;-68
2022/07/24 10:25:53;;;;;;;19.23;17.70;;;33.50;74.20;;;;;;5017604;28;20523;-68
2022/07/24 10:28:36;;;;;;;19.23;17.90;;;33.70;75.40;;;;;;5017440;28;20452;-68
2022/07/24 10:31:05;;;;;;;18.27;17.27;;;33.50;71.80;;;;;;5016972;28;20468;-67
2022/07/24 10:33:32;;;;;;;18.77;17.40;;;34.20;70.50;;;;;;5017400;28;20530;-69
2022/07/24 10:36:04;;;;;;;17.37;16.37;;;34.70;68.50;;;;;;5017790;28;20677;-68
2022/07/24 10:38:36;;;;;;;17.80;16.80;;;34.40;65.60;;;;;;5016810;28;20479;-69
2022/07/24 10:41:09;;;;;;;18.50;17.50;;;33.90;67.40;;;;;;5016449;28;20553;-68
2022/07/24 10:43:37;;;;;;;17.70;16.60;;;34.40;66.40;;;;;;5018461;28;20455;-69
2022/07/24 10:46:14;;;;;;;18.67;16.57;;;34.60;67.10;;;;;;5017303;28;21189;-69
2022/07/24 10:48:41;;;;;;;16.50;15.50;;;34.40;64.20;;;;;;5016847;28;20927;-67
2022/07/24 10:51:14;;;;;;;18.73;17.63;;;33.90;63.90;;;;;;5016342;28;20553;-68
2022/07/24 10:53:47;;;;;;;18.33;17.10;;;33.50;66.20;;;;;;5016714;28;21084;-68
2022/07/24 10:56:19;;;;;;;17.83;16.73;;;33.50;66.80;;;;;;5015532;28;21050;-68
2022/07/24 10:59:00;;;;;;;17.17;16.10;;;34.20;66.50;;;;;;5016406;28;20476;-68
2022/07/24 11:01:37;;;;;;;19.13;17.77;;;34.10;64.50;;;;;;5016325;28;23188;-69
2022/07/24 11:04:24;;;;;;;18.07;16.80;;;34.40;63.30;;;;;;5017002;28;20491;-69
2022/07/24 11:06:54;;;;;;;19.03;17.53;;;35.00;61.70;;;;;;5016609;28;20460;-69
2022/07/24 11:09:22;;;;;;;18.70;17.70;;;35.30;61.30;;;;;;5016326;28;20464;-68
2022/07/24 11:12:07;;;;;;;18.27;17.07;;;35.50;59.70;;;;;;5015045;28;20564;-68
2022/07/24 11:14:50;;;;;;;17.67;16.60;;;34.80;59.50;;;;;;5015648;28;20464;-68
2022/07/24 11:17:41;;;;;;;17.23;16.13;;;35.00;58.20;;;;;;5012295;28;20870;-69
2022/07/24 11:20:09;;;;;;;17.80;16.80;;;35.30;57.40;;;;;;5020449;28;20495;-68
2022/07/24 11:22:47;;;;;;;16.77;15.77;;;35.10;56.70;;;;;;5015375;28;20456;-67
2022/07/24 11:25:17;;;;;;;16.13;15.23;;;34.60;56.30;;;;;;5015346;28;20494;-68
2022/07/24 11:27:58;;;;;;;18.47;17.10;;;34.50;54.10;;;;;;5015084;28;20459;-68
2022/07/24 11:30:28;;;;;;;18.13;16.90;;;34.80;56.00;;;;;;5014523;28;20491;-68
2022/07/24 11:32:54;;;;;;;17.53;16.33;;;35.20;56.20;;;;;;5014344;28;20479;-69
2022/07/24 11:35:34;;;;;;;17.23;16.23;;;34.70;56.70;;;;;;5015597;28;20463;-68
2022/07/24 11:38:05;;;;;;;17.83;16.50;;;34.70;55.80;;;;;;5015306;28;20487;-67
2022/07/24 11:40:33;;;;;;;17.03;16.13;;;35.60;55.80;;;;;;5015256;28;20471;-69
2022/07/24 11:43:01;;;;;;;17.83;16.60;;;36.80;53.20;;;;;;5015337;28;20673;-69
2022/07/24 11:45:28;;;;;;;17.10;15.93;;;36.90;51.30;;;;;;5015562;28;20773;-68
2022/07/24 11:47:56;;;;;;;17.10;16.10;;;37.10;50.30;;;;;;5015366;28;20471;-68
2022/07/24 11:50:24;;;;;;;16.83;15.63;;;36.90;50.20;;;;;;5016832;28;20467;-68
2022/07/24 11:52:51;;;;;;;15.90;15.00;;;36.80;47.80;;;;;;5015311;28;20479;-69
2022/07/24 11:55:24;;;;;;;15.23;14.43;;;36.20;48.70;;;;;;5015137;28;22256;-68
2022/07/24 11:57:53;;;;;;;15.47;14.77;;;36.50;47.60;;;;;;5015158;28;20492;-69
2022/07/24 12:00:22;;;;;;;15.63;14.73;;;36.30;47.30;;;;;;5015033;28;20469;-69
2022/07/24 12:02:51;;;;;;;17.13;16.17;;;37.00;46.40;;;;;;5014826;28;20468;-68
2022/07/24 12:05:25;;;;;;;15.47;14.67;;;37.40;48.50;;;;;;5021890;28;20492;-68
2022/07/24 12:07:52;;;;;;;16.60;15.70;;;37.70;46.70;;;;;;5040896;28;20490;-69
2022/07/24 12:10:22;;;;;;;17.43;16.33;;;37.40;47.20;;;;;;5025418;28;21175;-69
2022/07/24 12:12:50;;;;;;;16.93;16.00;;;37.10;47.40;;;;;;5015349;28;20468;-68
2022/07/24 12:15:17;;;;;;;16.87;15.97;;;36.60;48.40;;;;;;5013540;28;20488;-69
2022/07/24 12:17:56;;;;;;;15.43;14.43;;;37.40;46.70;;;;;;5016049;28;20468;-69
2022/07/24 12:20:24;;;;;;;14.90;14.07;;;37.40;44.10;;;;;;5014856;28;20805;-68
2022/07/24 12:22:52;;;;;;;16.20;15.20;;;37.60;42.70;;;;;;5014965;28;21201;-69
2022/07/24 12:25:21;;;;;;;16.20;15.40;;;37.50;44.50;;;;;;5015215;28;20587;-69
2022/07/24 12:27:48;;;;;;;18.60;15.50;;;37.50;45.20;;;;;;5014959;28;20468;-69
2022/07/24 12:30:24;;;;;;;16.03;15.23;;;37.70;45.20;;;;;;5014939;28;20518;-69
2022/07/24 12:32:56;;;;;;;16.50;15.50;;;38.20;44.90;;;;;;5014871;28;20546;-69
2022/07/24 12:35:22;;;;;;;16.90;15.80;;;38.70;44.70;;;;;;5014779;28;20472;-68
2022/07/24 12:37:49;;;;;;;16.87;15.80;;;39.30;43.80;;;;;;5014598;28;20460;-68